createdAt,value
2023-04-11T05:03:10.793Z,10.76
2023-04-11T05:08:12.687Z,10.72
2023-04-11T05:13:14.900Z,10.67
2023-04-11T05:18:17.610Z,10.56
2023-04-11T05:23:20.824Z,10.45
2023-04-11T05:28:24.098Z,10.39
2023-04-11T05:33:25.649Z,10.39
2023-04-11T05:38:28.459Z,10.41
2023-04-11T05:43:30.089Z,10.45
2023-04-11T05:48:36.074Z,10.49
2023-04-11T05:53:37.510Z,10.53
2023-04-11T05:58:39.528Z,10.58
2023-04-11T06:03:41.151Z,10.61
2023-04-11T06:08:42.908Z,10.69
2023-04-11T06:13:44.381Z,10.70
2023-04-11T06:18:46.044Z,10.76
2023-04-11T06:23:47.475Z,10.80
2023-04-11T06:28:51.233Z,10.81
2023-04-11T06:33:52.699Z,10.76
2023-04-11T06:38:54.188Z,10.62
2023-04-11T06:43:55.904Z,10.46
2023-04-11T06:48:57.569Z,10.24
2023-04-11T06:53:59.220Z,9.93
2023-04-11T06:59:01.418Z,9.63
2023-04-11T07:04:07.006Z,9.46
2023-04-11T07:09:12.926Z,9.31
2023-04-11T07:14:14.450Z,9.23
2023-04-11T07:19:15.891Z,9.27
2023-04-11T07:24:18.565Z,9.39
2023-04-11T07:29:20.295Z,9.49
2023-04-11T07:34:21.794Z,9.57
2023-04-11T07:39:23.330Z,9.60
2023-04-11T07:44:24.806Z,9.58
2023-04-11T07:49:26.278Z,9.62
2023-04-11T07:54:28.408Z,9.63
2023-04-11T07:59:29.904Z,9.60
2023-04-11T08:04:33.597Z,9.59
2023-04-11T08:09:35.359Z,9.73
2023-04-11T08:14:37.209Z,9.82
2023-04-11T08:19:38.960Z,9.87
2023-04-11T08:24:40.489Z,9.88
2023-04-11T08:29:41.971Z,9.94
2023-04-11T08:34:43.412Z,9.99
2023-04-11T08:39:44.860Z,10.04
2023-04-11T08:44:52.968Z,10.15
2023-04-11T08:49:56.359Z,10.20
2023-04-11T08:54:57.807Z,10.26
2023-04-11T09:00:02.108Z,10.27
2023-04-11T09:05:03.908Z,10.14
2023-04-11T09:10:19.583Z,9.83
2023-04-11T09:15:26.447Z,9.63
2023-04-11T09:20:31.256Z,9.76
2023-04-11T09:25:43.838Z,10.03
2023-04-11T09:30:53.459Z,10.26
2023-04-11T09:35:56.621Z,10.44
2023-04-11T09:40:59.634Z,10.56
2023-04-11T09:46:12.099Z,10.76
2023-04-11T09:51:27.588Z,10.84
2023-04-11T09:56:36.666Z,10.96
2023-04-11T10:01:38.816Z,10.93
2023-04-11T10:07:02.190Z,10.96
2023-04-11T10:12:04.150Z,10.96
2023-04-11T10:17:18.644Z,10.96
2023-04-11T10:22:59.156Z,11.19
2023-04-11T10:28:01.313Z,11.36
2023-04-11T10:33:09.926Z,11.58
2023-04-11T10:38:48.918Z,11.64
2023-04-11T10:43:51.763Z,11.48
2023-04-11T10:49:04.545Z,10.82
2023-04-11T10:54:06.294Z,10.20
2023-04-11T10:59:10.584Z,9.78
2023-04-11T11:04:13.147Z,9.68
2023-04-11T11:09:21.971Z,9.60
2023-04-11T11:14:32.516Z,9.69
2023-04-11T11:19:35.582Z,10.01
2023-04-11T11:24:37.062Z,10.29
2023-04-11T11:29:38.681Z,10.48
2023-04-11T11:34:40.343Z,10.58
2023-04-11T11:39:43.580Z,8.29
2023-04-11T11:44:45.337Z,7.07
2023-04-11T11:49:56.770Z,6.98
2023-04-11T11:54:58.532Z,7.25
2023-04-11T12:00:01.821Z,7.56
2023-04-11T12:05:06.382Z,7.77
2023-04-11T12:10:13.422Z,8.02
2023-04-11T12:15:19.831Z,8.06
2023-04-11T12:20:26.455Z,8.34
2023-04-11T12:25:28.695Z,8.75
2023-04-11T12:30:30.387Z,9.03
2023-04-11T12:35:32.805Z,9.17
2023-04-11T12:40:34.314Z,9.44
2023-04-11T12:45:36.046Z,9.62
2023-04-11T12:50:37.596Z,9.74
2023-04-11T12:55:39.117Z,9.85
2023-04-11T13:00:40.752Z,9.97
2023-04-11T13:05:42.191Z,10.13
2023-04-11T13:10:43.833Z,10.29
2023-04-11T13:15:46.209Z,10.40
2023-04-11T13:20:47.661Z,10.38
2023-04-11T13:25:49.113Z,10.59
2023-04-11T13:30:50.589Z,11.35
2023-04-11T13:35:52.256Z,12.09
2023-04-11T13:40:55.403Z,11.94
2023-04-11T13:45:57.044Z,11.65
2023-04-11T13:50:59.734Z,11.48
2023-04-11T13:56:03.266Z,11.50
2023-04-11T14:01:05.209Z,11.88
2023-04-11T14:06:08.759Z,12.13
2023-04-11T14:11:10.279Z,12.21
2023-04-11T14:16:11.715Z,12.17
2023-04-11T14:21:13.406Z,12.11
2023-04-11T14:26:14.850Z,12.05
2023-04-11T14:31:16.368Z,11.99
2023-04-11T14:36:18.006Z,11.87
2023-04-11T14:41:19.474Z,12.07
2023-04-11T14:46:20.964Z,12.21
2023-04-11T14:51:25.217Z,11.64
2023-04-11T14:56:26.835Z,11.10
2023-04-11T15:01:28.306Z,10.59
2023-04-11T15:06:29.834Z,9.57
2023-04-11T15:11:31.471Z,8.07
2023-04-11T15:16:33.010Z,7.49
2023-04-11T15:21:34.504Z,6.84
2023-04-11T15:26:36.284Z,7.01
2023-04-11T15:31:38.782Z,7.79
2023-04-11T15:36:41.947Z,8.34
2023-04-11T15:41:43.374Z,8.54
2023-04-11T15:46:46.778Z,8.74
2023-04-11T15:51:50.190Z,8.99
2023-04-11T15:56:51.778Z,9.13
2023-04-11T16:01:53.354Z,9.09
2023-04-11T16:06:56.905Z,8.83
2023-04-11T16:11:58.343Z,8.25
2023-04-11T16:16:59.796Z,8.15
2023-04-11T16:22:01.318Z,8.61
2023-04-11T16:27:02.791Z,9.09
2023-04-11T16:32:04.742Z,9.39
2023-04-11T16:37:06.388Z,9.42
2023-04-11T16:42:07.819Z,9.35
2023-04-11T16:47:09.997Z,9.19
2023-04-11T16:52:11.624Z,9.23
2023-04-11T16:57:13.077Z,9.51
2023-04-11T17:02:14.727Z,9.52
2023-04-11T17:07:16.447Z,9.35
2023-04-11T17:12:17.897Z,9.06
2023-04-11T17:17:20.819Z,8.95
2023-04-11T17:22:22.276Z,8.85
2023-04-11T17:27:23.736Z,8.75
2023-04-11T17:32:25.649Z,8.81
2023-04-11T17:37:27.662Z,8.77
2023-04-11T17:42:29.181Z,8.68
2023-04-11T17:47:30.760Z,8.50
2023-04-11T17:52:32.235Z,8.27
2023-04-11T17:57:34.548Z,8.06
2023-04-11T18:02:42.244Z,7.91
2023-04-11T18:07:45.105Z,7.75
2023-04-11T18:12:51.475Z,7.61
2023-04-11T18:17:53.350Z,7.54
2023-04-11T18:22:55.993Z,7.61
2023-04-11T18:27:57.472Z,7.79
2023-04-11T18:32:58.913Z,7.95
2023-04-11T18:38:00.472Z,7.96
2023-04-11T18:43:01.914Z,7.79
2023-04-11T18:48:03.583Z,7.43
2023-04-11T18:53:07.336Z,6.96
2023-04-11T18:58:12.292Z,6.69
2023-04-11T19:03:16.637Z,6.38
2023-04-11T19:08:18.215Z,6.18
2023-04-11T19:13:19.769Z,6.06
2023-04-11T19:18:21.421Z,5.96
2023-04-11T19:23:23.092Z,5.97
2023-04-11T19:28:24.580Z,6.01
2023-04-11T19:33:26.215Z,6.06
2023-04-11T19:38:27.802Z,6.00
2023-04-11T19:43:29.566Z,5.85
2023-04-11T19:48:31.087Z,5.73
2023-04-11T19:53:36.367Z,5.75
2023-04-11T19:58:37.903Z,5.72
2023-04-11T20:03:40.563Z,5.64
2023-04-11T20:08:42.269Z,5.63
2023-04-11T20:13:43.718Z,5.67
2023-04-11T20:18:45.249Z,5.59
2023-04-11T20:23:48.102Z,5.52
2023-04-11T20:28:50.289Z,5.46
2023-04-11T20:33:51.906Z,5.41
2023-04-11T20:38:55.171Z,5.35
2023-04-11T20:43:57.461Z,5.37
2023-04-11T20:48:59.043Z,5.41
2023-04-11T20:54:00.518Z,5.37
2023-04-11T20:59:02.529Z,5.32
2023-04-11T21:04:04.596Z,5.15
2023-04-11T21:09:06.286Z,5.03
2023-04-11T21:14:07.707Z,5.03
2023-04-11T21:19:11.478Z,5.02
2023-04-11T21:24:12.917Z,5.02
2023-04-11T21:29:14.326Z,4.98
2023-04-11T21:34:15.760Z,4.99
2023-04-11T21:39:17.181Z,5.00
2023-04-11T21:44:18.634Z,5.01
2023-04-11T21:49:20.074Z,5.05
2023-04-11T21:54:21.556Z,5.07
2023-04-11T21:59:22.995Z,5.04
